Time,TemperatureF,DewpointF,PressureIn,WindDirection,WindDirectionDegrees,WindSpeedMPH,WindSpeedGustMPH,Humidity,HourlyPrecipIn,Conditions,Clouds,dailyrainin,SoftwareType,DateUTC
2013-08-05 00:00:00,63.0,52.6,29.57,ENE,67,0.0,6.0,69,0.00,,,0.00,Weather View 32 v70,2013-08-05 04:00:00,
2013-08-05 00:05:00,64.0,53.6,29.57,WSW,247,0.0,6.0,69,0.00,,,0.00,Weather View 32 v70,2013-08-05 04:05:00,
2013-08-05 00:10:00,63.0,52.2,29.57,WSW,247,0.0,6.0,68,0.00,,,0.00,Weather View 32 v70,2013-08-05 04:10:00,
2013-08-05 00:15:00,63.0,52.6,29.57,WSW,247,0.0,6.0,69,0.00,,,0.00,Weather View 32 v70,2013-08-05 04:15:00,
2013-08-05 00:25:00,64.0,52.8,29.57,West,270,0.0,4.0,67,0.00,,,0.00,Weather View 32 v70,2013-08-05 04:25:00,
2013-08-05 00:35:00,64.0,53.2,29.57,SW,225,0.0,4.0,68,0.00,,,0.00,Weather View 32 v70,2013-08-05 04:35:00,
2013-08-05 00:39:00,64.0,54.0,29.57,NW,315,4.0,4.0,70,0.00,,,0.00,Weather View 32 v70,2013-08-05 04:39:00,
2013-08-05 00:45:00,63.0,53.0,29.57,North,360,2.0,5.0,70,0.00,,,0.00,Weather View 32 v70,2013-08-05 04:45:00,
2013-08-05 00:50:00,63.0,53.4,29.57,North,360,2.0,5.0,71,0.00,,,0.00,Weather View 32 v70,2013-08-05 04:50:00,
2013-08-05 00:55:00,63.0,53.4,29.57,NNE,22,4.0,5.0,71,0.00,,,0.00,Weather View 32 v70,2013-08-05 04:55:00,
2013-08-05 01:05:00,63.0,53.8,29.57,NNE,22,1.0,6.0,72,0.00,,,0.00,Weather View 32 v70,2013-08-05 05:05:00,
2013-08-05 01:15:00,63.0,54.2,29.57,NE,45,3.0,6.0,73,0.00,,,0.00,Weather View 32 v70,2013-08-05 05:15:00,
2013-08-05 01:25:00,62.0,53.6,29.57,NE,45,3.0,6.0,74,0.00,,,0.00,Weather View 32 v70,2013-08-05 05:25:00,
2013-08-05 01:35:00,62.0,53.2,29.57,NE,45,3.0,6.0,73,0.00,,,0.00,Weather View 32 v70,2013-08-05 05:35:00,
2013-08-05 01:45:00,62.0,53.6,29.57,NE,45,5.0,6.0,74,0.00,,,0.00,Weather View 32 v70,2013-08-05 05:45:00,
2013-08-05 01:49:00,62.0,53.6,29.57,NE,45,4.0,6.0,74,0.00,,,0.00,Weather View 32 v70,2013-08-05 05:49:00,
2013-08-05 02:00:00,62.0,53.6,29.57,North,360,2.0,7.0,74,0.00,,,0.00,Weather View 32 v70,2013-08-05 06:00:00,
2013-08-05 02:10:00,62.0,53.2,29.57,NNW,337,3.0,7.0,73,0.00,,,0.00,Weather View 32 v70,2013-08-05 06:10:00,
2013-08-05 02:15:00,63.0,53.4,29.57,North,360,5.0,7.0,71,0.00,,,0.00,Weather View 32 v70,2013-08-05 06:15:00,
2013-08-05 02:19:00,63.0,53.0,29.57,NW,315,5.0,7.0,70,0.00,,,0.00,Weather View 32 v70,2013-08-05 06:19:00,
2013-08-05 02:27:00,63.0,53.4,29.57,NW,315,3.0,7.0,71,0.00,,,0.00,Weather View 32 v70,2013-08-05 06:27:00,
2013-08-05 02:35:00,62.0,54.0,29.57,NW,315,0.0,7.0,75,0.00,,,0.00,Weather View 32 v70,2013-08-05 06:35:00,
2013-08-05 02:40:00,61.0,53.0,29.58,NW,315,0.0,7.0,75,0.00,,,0.00,Weather View 32 v70,2013-08-05 06:40:00,
2013-08-05 02:45:00,61.0,53.4,29.58,NW,315,0.0,7.0,76,0.00,,,0.00,Weather View 32 v70,2013-08-05 06:45:00,
2013-08-05 02:55:00,60.0,53.8,29.58,NW,315,0.0,7.0,80,0.00,,,0.00,Weather View 32 v70,2013-08-05 06:55:00,
2013-08-05 03:04:00,59.0,53.5,29.58,NE,45,4.0,7.0,82,0.00,,,0.00,Weather View 32 v70,2013-08-05 07:04:00,
2013-08-05 03:10:00,60.0,54.1,29.58,North,360,5.0,7.0,81,0.00,,,0.00,Weather View 32 v70,2013-08-05 07:10:00,
2013-08-05 03:20:00,60.0,53.8,29.58,NNE,22,0.0,6.0,80,0.00,,,0.00,Weather View 32 v70,2013-08-05 07:20:00,
2013-08-05 03:27:00,60.0,53.5,29.58,NNW,337,0.0,6.0,79,0.00,,,0.00,Weather View 32 v70,2013-08-05 07:27:00,
2013-08-05 03:35:00,60.0,53.8,29.58,North,360,0.0,6.0,80,0.00,,,0.00,Weather View 32 v70,2013-08-05 07:35:00,
2013-08-05 03:40:00,60.0,53.5,29.58,NW,315,1.0,6.0,79,0.00,,,0.00,Weather View 32 v70,2013-08-05 07:40:00,
2013-08-05 03:45:00,60.0,53.5,29.58,NW,315,0.0,6.0,79,0.00,,,0.00,Weather View 32 v70,2013-08-05 07:45:00,
2013-08-05 03:55:00,60.0,53.8,29.58,NW,315,0.0,6.0,80,0.00,,,0.00,Weather View 32 v70,2013-08-05 07:55:00,
2013-08-05 04:00:00,60.0,53.8,29.58,NW,315,0.0,6.0,80,0.00,,,0.00,Weather View 32 v70,2013-08-05 08:00:00,
2013-08-05 04:10:00,59.0,54.2,29.58,NE,45,0.0,6.0,84,0.00,,,0.00,Weather View 32 v70,2013-08-05 08:10:00,
2013-08-05 04:15:00,59.0,54.2,29.58,NE,45,0.0,5.0,84,0.00,,,0.00,Weather View 32 v70,2013-08-05 08:15:00,
2013-08-05 04:20:00,58.0,53.5,29.58,NE,45,0.0,4.0,85,0.00,,,0.00,Weather View 32 v70,2013-08-05 08:20:00,
2013-08-05 04:25:00,58.0,53.8,29.58,NE,45,0.0,4.0,86,0.00,,,0.00,Weather View 32 v70,2013-08-05 08:25:00,
2013-08-05 04:35:00,57.0,53.2,29.57,NE,45,1.0,4.0,87,0.00,,,0.00,Weather View 32 v70,2013-08-05 08:35:00,
2013-08-05 04:39:00,57.0,52.8,29.57,NE,45,0.0,4.0,86,0.00,,,0.00,Weather View 32 v70,2013-08-05 08:39:00,
2013-08-05 04:50:00,56.0,51.9,29.57,NE,45,0.0,4.0,86,0.00,,,0.00,Weather View 32 v70,2013-08-05 08:50:00,
2013-08-05 05:00:00,56.0,49.6,29.58,NE,45,0.0,4.0,79,0.00,,,0.00,Weather View 32 v70,2013-08-05 09:00:00,
2013-08-05 05:05:00,56.0,49.6,29.58,NE,45,0.0,4.0,79,0.00,,,0.00,Weather View 32 v70,2013-08-05 09:05:00,
2013-08-05 05:28:00,55.0,48.3,29.59,NE,45,0.0,2.0,78,0.00,,,0.00,Weather View 32 v70,2013-08-05 09:28:00,
2013-08-05 05:35:00,54.0,40.4,29.59,NE,45,0.0,2.0,60,0.00,,,0.00,Weather View 32 v70,2013-08-05 09:35:00,
2013-08-05 05:39:00,54.0,40.0,29.59,NE,45,0.0,2.0,59,0.00,,,0.00,Weather View 32 v70,2013-08-05 09:39:00,
2013-08-05 06:00:00,54.0,30.2,29.59,NE,45,0.0,2.0,40,0.00,,,0.00,Weather View 32 v70,2013-08-05 10:00:00,
2013-08-05 06:04:00,54.0,28.9,29.60,NE,45,0.0,1.0,38,0.00,,,0.00,Weather View 32 v70,2013-08-05 10:04:00,
2013-08-05 06:10:00,54.0,18.0,29.60,NE,45,1.0,1.0,24,0.00,,,0.00,Weather View 32 v70,2013-08-05 10:10:00,
2013-08-05 06:20:00,53.0,16.1,29.60,NE,45,0.0,3.0,23,0.00,,,0.00,Weather View 32 v70,2013-08-05 10:20:00,
2013-08-05 06:29:00,53.0,-2.2,29.60,NE,45,1.0,3.0,10,0.00,,,0.00,Weather View 32 v70,2013-08-05 10:29:00,
2013-08-05 06:35:00,53.0,-0.2,29.60,NE,45,2.0,3.0,11,0.00,,,0.00,Weather View 32 v70,2013-08-05 10:35:00,
2013-08-05 06:39:00,53.0,-16.3,29.60,NE,45,0.0,3.0,5,0.00,,,0.00,Weather View 32 v70,2013-08-05 10:39:00,
2013-08-05 06:45:00,54.0,-44.7,29.60,NE,45,2.0,4.0,1,0.00,,,0.00,Weather View 32 v70,2013-08-05 10:45:00,
2013-08-05 06:55:00,55.0,-44.1,29.61,NE,45,0.0,4.0,1,0.00,,,0.00,Weather View 32 v70,2013-08-05 10:55:00,
2013-08-05 07:15:00,57.0,-1.4,29.61,NE,45,0.0,4.0,9,0.00,,,0.00,Weather View 32 v70,2013-08-05 11:15:00,
2013-08-05 07:20:00,57.0,-13.4,29.61,NE,45,0.0,4.0,5,0.00,,,0.00,Weather View 32 v70,2013-08-05 11:20:00,
2013-08-05 07:29:00,58.0,-12.7,29.61,NE,45,0.0,4.0,5,0.00,,,0.00,Weather View 32 v70,2013-08-05 11:29:00,
2013-08-05 07:35:00,59.0,21.2,29.62,NE,45,0.0,4.0,23,0.00,,,0.00,Weather View 32 v70,2013-08-05 11:35:00,
2013-08-05 07:40:00,60.0,26.7,29.62,NE,45,0.0,4.0,28,0.00,,,0.00,Weather View 32 v70,2013-08-05 11:40:00,
2013-08-05 07:45:00,61.0,45.6,29.62,NE,45,0.0,3.0,57,0.00,,,0.00,Weather View 32 v70,2013-08-05 11:45:00,
2013-08-05 08:00:00,63.0,58.4,29.63,NE,45,0.0,2.0,85,0.00,,,0.00,Weather View 32 v70,2013-08-05 12:00:00,
2013-08-05 08:10:00,64.0,59.7,29.63,NE,45,0.0,2.0,86,0.00,,,0.00,Weather View 32 v70,2013-08-05 12:10:00,
2013-08-05 08:20:00,66.0,61.7,29.63,NE,45,0.0,2.0,86,0.00,,,0.00,Weather View 32 v70,2013-08-05 12:20:00,
2013-08-05 08:24:00,67.0,62.0,29.63,NE,45,0.0,2.0,84,0.00,,,0.00,Weather View 32 v70,2013-08-05 12:24:00,
2013-08-05 08:35:00,68.0,59.8,29.63,ESE,112,3.0,4.0,75,0.00,,,0.00,Weather View 32 v70,2013-08-05 12:35:00,
2013-08-05 08:50:00,70.0,59.7,29.64,SE,135,2.0,4.0,70,0.00,,,0.00,Weather View 32 v70,2013-08-05 12:50:00,
2013-08-05 09:00:00,71.0,59.0,29.65,SE,135,0.0,4.0,66,0.00,,,0.00,Weather View 32 v70,2013-08-05 13:00:00,
2013-08-05 09:10:00,72.0,58.2,29.65,SSE,157,0.0,5.0,62,0.00,,,0.00,Weather View 32 v70,2013-08-05 13:10:00,
2013-08-05 09:14:00,71.0,55.0,29.65,NW,315,3.0,7.0,57,0.00,,,0.00,Weather View 32 v70,2013-08-05 13:14:00,
2013-08-05 09:30:00,71.0,56.4,29.65,NNE,22,7.0,9.0,60,0.00,,,0.00,Weather View 32 v70,2013-08-05 13:30:00,
2013-08-05 09:35:00,71.0,56.8,29.65,NNE,22,4.0,9.0,61,0.00,,,0.00,Weather View 32 v70,2013-08-05 13:35:00,
2013-08-05 09:39:00,72.0,57.3,29.65,North,360,0.0,9.0,60,0.00,,,0.00,Weather View 32 v70,2013-08-05 13:39:00,
2013-08-05 09:49:00,73.0,56.8,29.64,NNE,22,4.0,9.0,57,0.00,,,0.00,Weather View 32 v70,2013-08-05 13:49:00,
2013-08-05 10:00:00,71.0,56.4,29.65,NE,45,6.0,9.0,60,0.00,,,0.00,Weather View 32 v70,2013-08-05 14:00:00,
2013-08-05 10:05:00,70.0,55.9,29.64,ENE,67,4.0,9.0,61,0.00,,,0.00,Weather View 32 v70,2013-08-05 14:05:00,
2013-08-05 10:15:00,71.0,55.9,29.64,NE,45,5.0,12.0,59,0.00,,,0.00,Weather View 32 v70,2013-08-05 14:15:00,
2013-08-05 10:25:00,73.0,56.3,29.65,NNW,337,7.0,12.0,56,0.00,,,0.00,Weather View 32 v70,2013-08-05 14:25:00,
2013-08-05 10:34:00,73.0,55.8,29.65,SSW,202,6.0,12.0,55,0.00,,,0.00,Weather View 32 v70,2013-08-05 14:34:00,
2013-08-05 10:45:00,73.0,56.8,29.65,ENE,67,2.0,12.0,57,0.00,,,0.00,Weather View 32 v70,2013-08-05 14:45:00,
2013-08-05 10:50:00,73.0,56.8,29.65,NNW,337,0.0,12.0,57,0.00,,,0.00,Weather View 32 v70,2013-08-05 14:50:00,
2013-08-05 11:00:00,71.0,56.8,29.65,East,90,4.0,12.0,61,0.00,,,0.00,Weather View 32 v70,2013-08-05 15:00:00,
2013-08-05 11:05:00,70.0,57.7,29.65,SE,135,3.0,12.0,65,0.00,,,0.00,Weather View 32 v70,2013-08-05 15:05:00,
2013-08-05 11:20:00,71.0,57.3,29.65,SE,135,0.0,9.0,62,0.00,,,0.00,Weather View 32 v70,2013-08-05 15:20:00,
2013-08-05 11:24:00,73.0,58.2,29.65,North,360,4.0,9.0,60,0.00,,,0.00,Weather View 32 v70,2013-08-05 15:24:00,
2013-08-05 11:30:00,75.0,56.7,29.64,NNE,22,5.0,7.0,53,0.00,,,0.00,Weather View 32 v70,2013-08-05 15:30:00,
2013-08-05 11:35:00,76.0,54.8,29.65,North,360,1.0,7.0,48,0.00,,,0.00,Weather View 32 v70,2013-08-05 15:35:00,
2013-08-05 11:40:00,76.0,56.5,29.65,SW,225,2.0,7.0,51,0.00,,,0.00,Weather View 32 v70,2013-08-05 15:40:00,
2013-08-05 11:50:00,72.0,55.4,29.64,WSW,247,2.0,7.0,56,0.00,,,0.00,Weather View 32 v70,2013-08-05 15:50:00,
2013-08-05 12:00:00,73.0,54.8,29.64,SE,135,4.0,7.0,53,0.00,,,0.00,Weather View 32 v70,2013-08-05 16:00:00,
2013-08-05 12:05:00,73.0,54.8,29.64,SE,135,6.0,7.0,53,0.00,,,0.00,Weather View 32 v70,2013-08-05 16:05:00,
2013-08-05 12:15:00,74.0,54.7,29.64,SSW,202,1.0,7.0,51,0.00,,,0.00,Weather View 32 v70,2013-08-05 16:15:00,
2013-08-05 12:19:00,73.0,53.7,29.64,SW,225,3.0,7.0,51,0.00,,,0.00,Weather View 32 v70,2013-08-05 16:19:00,
2013-08-05 12:29:00,72.0,52.8,29.64,West,270,3.0,12.0,51,0.00,,,0.00,Weather View 32 v70,2013-08-05 16:29:00,
2013-08-05 12:59:00,74.0,50.6,29.63,WNW,292,8.0,13.0,44,0.00,,,0.00,Weather View 32 v70,2013-08-05 16:59:00,
2013-08-05 13:09:00,77.0,52.1,29.62,SW,225,4.0,13.0,42,0.00,,,0.00,Weather View 32 v70,2013-08-05 17:09:00,
2013-08-05 13:15:00,77.0,50.1,29.62,SW,225,4.0,13.0,39,0.00,,,0.00,Weather View 32 v70,2013-08-05 17:15:00,
2013-08-05 13:25:00,75.0,49.6,29.62,WSW,247,7.0,13.0,41,0.00,,,0.00,Weather View 32 v70,2013-08-05 17:25:00,
2013-08-05 13:30:00,75.0,49.6,29.62,SE,135,7.0,15.0,41,0.00,,,0.00,Weather View 32 v70,2013-08-05 17:30:00,
2013-08-05 13:40:00,75.0,50.3,29.62,NE,45,5.0,15.0,42,0.00,,,0.00,Weather View 32 v70,2013-08-05 17:40:00,
2013-08-05 13:50:00,77.0,50.8,29.61,SW,225,9.0,15.0,40,0.00,,,0.00,Weather View 32 v70,2013-08-05 17:50:00,
2013-08-05 14:00:00,75.0,52.8,29.61,SSW,202,7.0,15.0,46,0.00,,,0.00,Weather View 32 v70,2013-08-05 18:00:00,
2013-08-05 14:05:00,75.0,52.8,29.61,SW,225,5.0,15.0,46,0.00,,,0.00,Weather View 32 v70,2013-08-05 18:05:00,
2013-08-05 14:10:00,75.0,52.8,29.61,South,180,6.0,15.0,46,0.00,,,0.00,Weather View 32 v70,2013-08-05 18:10:00,
2013-08-05 14:20:00,75.0,52.2,29.60,SW,225,6.0,15.0,45,0.00,,,0.00,Weather View 32 v70,2013-08-05 18:20:00,
2013-08-05 14:30:00,74.0,51.2,29.60,ENE,67,1.0,12.0,45,0.00,,,0.00,Weather View 32 v70,2013-08-05 18:30:00,
2013-08-05 14:40:00,78.0,52.3,29.59,SW,225,7.0,12.0,41,0.00,,,0.00,Weather View 32 v70,2013-08-05 18:40:00,
2013-08-05 14:50:00,77.0,52.1,29.59,WNW,292,0.0,12.0,42,0.00,,,0.00,Weather View 32 v70,2013-08-05 18:50:00,
2013-08-05 15:05:00,81.0,52.9,29.59,North,360,0.0,12.0,38,0.00,,,0.00,Weather View 32 v70,2013-08-05 19:05:00,
2013-08-05 15:15:00,80.0,52.0,29.59,WNW,292,1.0,10.0,38,0.00,,,0.00,Weather View 32 v70,2013-08-05 19:15:00,
2013-08-05 15:20:00,79.0,51.1,29.59,NNW,337,1.0,10.0,38,0.00,,,0.00,Weather View 32 v70,2013-08-05 19:20:00,
2013-08-05 15:34:00,81.0,52.9,29.59,NE,45,0.0,10.0,38,0.00,,,0.00,Weather View 32 v70,2013-08-05 19:34:00,
2013-08-05 15:40:00,81.0,53.6,29.58,SW,225,4.0,10.0,39,0.00,,,0.00,Weather View 32 v70,2013-08-05 19:40:00,
2013-08-05 15:50:00,79.0,54.5,29.58,SW,225,8.0,10.0,43,0.00,,,0.00,Weather View 32 v70,2013-08-05 19:50:00,
2013-08-05 16:00:00,78.0,52.3,29.58,South,180,3.0,10.0,41,0.00,,,0.00,Weather View 32 v70,2013-08-05 20:00:00,
2013-08-05 16:05:00,77.0,52.7,29.58,South,180,4.0,10.0,43,0.00,,,0.00,Weather View 32 v70,2013-08-05 20:05:00,
2013-08-05 16:15:00,76.0,51.8,29.58,SE,135,0.0,10.0,43,0.00,,,0.00,Weather View 32 v70,2013-08-05 20:15:00,
2013-08-05 16:20:00,76.0,53.1,29.58,SE,135,1.0,10.0,45,0.00,,,0.00,Weather View 32 v70,2013-08-05 20:20:00,
2013-08-05 16:30:00,75.0,52.2,29.57,ENE,67,5.0,10.0,45,0.00,,,0.00,Weather View 32 v70,2013-08-05 20:30:00,
2013-08-05 16:35:00,76.0,51.8,29.57,NE,45,2.0,10.0,43,0.00,,,0.00,Weather View 32 v70,2013-08-05 20:35:00,
2013-08-05 16:45:00,79.0,51.8,29.57,NNW,337,4.0,10.0,39,0.00,,,0.00,Weather View 32 v70,2013-08-05 20:45:00,
2013-08-05 16:50:00,81.0,54.3,29.57,NNE,22,0.0,10.0,40,0.00,,,0.00,Weather View 32 v70,2013-08-05 20:50:00,
2013-08-05 17:00:00,81.0,54.3,29.57,NE,45,0.0,9.0,40,0.00,,,0.00,Weather View 32 v70,2013-08-05 21:00:00,
2013-08-05 17:15:00,77.0,51.4,29.59,SW,225,7.0,9.0,41,0.00,,,0.00,Weather View 32 v70,2013-08-05 21:15:00,
2013-08-05 17:20:00,76.0,50.5,29.58,SW,225,6.0,9.0,41,0.00,,,0.00,Weather View 32 v70,2013-08-05 21:20:00,
2013-08-05 17:30:00,76.0,49.9,29.58,South,180,1.0,9.0,40,0.00,,,0.00,Weather View 32 v70,2013-08-05 21:30:00,
2013-08-05 17:35:00,76.0,53.1,29.57,ENE,67,4.0,9.0,45,0.00,,,0.00,Weather View 32 v70,2013-08-05 21:35:00,
2013-08-05 17:45:00,77.0,52.7,29.57,ENE,67,4.0,9.0,43,0.00,,,0.00,Weather View 32 v70,2013-08-05 21:45:00,
2013-08-05 17:50:00,76.0,49.2,29.57,ENE,67,5.0,9.0,39,0.00,,,0.00,Weather View 32 v70,2013-08-05 21:50:00,
2013-08-05 18:00:00,77.0,54.6,29.58,ESE,112,1.0,9.0,46,0.00,,,0.00,Weather View 32 v70,2013-08-05 22:00:00,
2013-08-05 18:05:00,76.0,54.8,29.58,East,90,0.0,9.0,48,0.00,,,0.00,Weather View 32 v70,2013-08-05 22:05:00,
2013-08-05 18:15:00,76.0,56.0,29.58,ESE,112,1.0,9.0,50,0.00,,,0.00,Weather View 32 v70,2013-08-05 22:15:00,
2013-08-05 18:25:00,76.0,55.4,29.58,SE,135,1.0,7.0,49,0.00,,,0.00,Weather View 32 v70,2013-08-05 22:25:00,
2013-08-05 18:30:00,76.0,54.2,29.58,SE,135,0.0,7.0,47,0.00,,,0.00,Weather View 32 v70,2013-08-05 22:30:00,
2013-08-05 18:36:00,76.0,54.2,29.58,South,180,3.0,7.0,47,0.00,,,0.00,Weather View 32 v70,2013-08-05 22:36:00,
2013-08-05 18:45:00,74.0,57.3,29.58,East,90,1.0,7.0,56,0.00,,,0.00,Weather View 32 v70,2013-08-05 22:45:00,
2013-08-05 18:50:00,73.0,56.3,29.58,East,90,1.0,7.0,56,0.00,,,0.00,Weather View 32 v70,2013-08-05 22:50:00,
2013-08-05 18:55:00,73.0,56.3,29.58,East,90,0.0,4.0,56,0.00,,,0.00,Weather View 32 v70,2013-08-05 22:55:00,
2013-08-05 19:05:00,72.0,56.4,29.58,East,90,0.0,4.0,58,0.00,,,0.00,Weather View 32 v70,2013-08-05 23:05:00,
2013-08-05 19:20:00,72.0,58.2,29.58,East,90,0.0,4.0,62,0.00,,,0.00,Weather View 32 v70,2013-08-05 23:20:00,
2013-08-05 19:25:00,72.0,60.0,29.59,WSW,247,1.0,4.0,66,0.00,,,0.00,Weather View 32 v70,2013-08-05 23:25:00,
2013-08-05 19:35:00,71.0,60.3,29.59,WSW,247,0.0,4.0,69,0.00,,,0.00,Weather View 32 v70,2013-08-05 23:35:00,
2013-08-05 19:45:00,70.0,58.9,29.59,WSW,247,0.0,4.0,68,0.00,,,0.00,Weather View 32 v70,2013-08-05 23:45:00,
2013-08-05 19:50:00,70.0,60.1,29.58,North,360,2.0,4.0,71,0.00,,,0.00,Weather View 32 v70,2013-08-05 23:50:00,
2013-08-05 20:05:00,68.0,58.6,29.58,North,360,0.0,4.0,72,0.00,,,0.00,Weather View 32 v70,2013-08-06 00:05:00,
2013-08-05 20:15:00,67.0,58.0,29.57,North,360,0.0,4.0,73,0.00,,,0.00,Weather View 32 v70,2013-08-06 00:15:00,
2013-08-05 20:25:00,67.0,58.4,29.58,West,270,0.0,5.0,74,0.00,,,0.00,Weather View 32 v70,2013-08-06 00:25:00,
2013-08-05 20:35:00,66.0,58.2,29.57,West,270,0.0,5.0,76,0.00,,,0.00,Weather View 32 v70,2013-08-06 00:35:00,
2013-08-05 20:45:00,66.0,60.0,29.57,NNE,22,1.0,5.0,81,0.00,,,0.00,Weather View 32 v70,2013-08-06 00:45:00,
2013-08-05 20:55:00,65.0,58.3,29.57,NNE,22,0.0,5.0,79,0.00,,,0.00,Weather View 32 v70,2013-08-06 00:55:00,
2013-08-05 21:00:00,64.0,58.0,29.58,NNE,22,0.0,5.0,81,0.00,,,0.00,Weather View 32 v70,2013-08-06 01:00:00,
2013-08-05 21:10:00,64.0,59.4,29.57,NNE,22,0.0,5.0,85,0.00,,,0.00,Weather View 32 v70,2013-08-06 01:10:00,
2013-08-05 21:20:00,63.0,59.1,29.57,NNE,22,0.0,5.0,87,0.00,,,0.00,Weather View 32 v70,2013-08-06 01:20:00,
2013-08-05 21:25:00,63.0,59.1,29.57,NNE,22,0.0,4.0,87,0.00,,,0.00,Weather View 32 v70,2013-08-06 01:25:00,
2013-08-05 21:35:00,62.0,57.4,29.57,NNE,22,2.0,4.0,85,0.00,,,0.00,Weather View 32 v70,2013-08-06 01:35:00,
2013-08-05 22:00:00,61.0,53.0,29.57,NNE,22,2.0,4.0,75,0.00,,,0.00,Weather View 32 v70,2013-08-06 02:00:00,
2013-08-05 22:10:00,61.0,54.4,29.57,NNE,22,0.0,4.0,79,0.00,,,0.00,Weather View 32 v70,2013-08-06 02:10:00,
2013-08-05 22:20:00,62.0,51.7,29.57,NNE,22,2.0,4.0,69,0.00,,,0.00,Weather View 32 v70,2013-08-06 02:20:00,
2013-08-05 22:30:00,62.0,54.3,29.57,NNE,22,0.0,4.0,76,0.00,,,0.00,Weather View 32 v70,2013-08-06 02:30:00,
2013-08-05 22:40:00,62.0,55.4,29.57,NNE,22,1.0,4.0,79,0.00,,,0.00,Weather View 32 v70,2013-08-06 02:40:00,
2013-08-05 22:50:00,62.0,55.4,29.57,NNE,22,0.0,4.0,79,0.00,,,0.00,Weather View 32 v70,2013-08-06 02:50:00,
2013-08-05 23:00:00,62.0,55.7,29.57,NNE,22,2.0,4.0,80,0.00,,,0.00,Weather View 32 v70,2013-08-06 03:00:00,
2013-08-05 23:10:00,62.0,56.8,29.57,NNE,22,0.0,4.0,83,0.00,,,0.00,Weather View 32 v70,2013-08-06 03:10:00,
2013-08-05 23:20:00,61.0,56.4,29.57,NNE,22,0.0,4.0,85,0.00,,,0.00,Weather View 32 v70,2013-08-06 03:20:00,
2013-08-05 23:25:00,61.0,56.1,29.57,NNE,22,0.0,4.0,84,0.00,,,0.00,Weather View 32 v70,2013-08-06 03:25:00,
2013-08-05 23:30:00,61.0,55.5,29.57,NNE,22,0.0,4.0,82,0.00,,,0.00,Weather View 32 v70,2013-08-06 03:30:00,
2013-08-05 23:40:00,60.0,53.5,29.57,NNE,22,2.0,4.0,79,0.00,,,0.00,Weather View 32 v70,2013-08-06 03:40:00,
2013-08-05 23:50:00,60.0,53.5,29.56,NNE,22,2.0,4.0,79,0.00,,,0.00,Weather View 32 v70,2013-08-06 03:50:00,
2013-08-05 23:55:00,59.0,49.6,29.56,NNE,22,0.0,4.0,71,0.00,,,0.00,Weather View 32 v70,2013-08-06 03:55:00,